KGEG/GEG METAR and TAF weather

Enter ICAO airport designator
Station Type Date Time Source
KGEG METAR 2021/05/17 22:53 UTC NOAA

KGEG 172253Z 23016G25KT 10SM FEW070 FEW200 26/03 A2977 RMK AO2 PK WND 23026/2202 SLP066 T02610028


Station Type Date Time Source
KGEG Decoded METAR 2021/05/17 22:53 UTC NOAA

SPOKANE INTERNATIONAL AIRPORT , WA, United States (KGEG) 47-37N 117-32W 735M
May 17, 2021 - 06:53 PM EDT / 2021.05.17 2253 UTC
Wind: from the SW (230 degrees) at 18 MPH (16 KT) gusting to 29 MPH (25 KT):0
Visibility: 10 mile(s):0
Sky conditions: mostly clear
Temperature: 79.0 F (26.1 C)
Dew Point: 37.0 F (2.8 C)
Relative Humidity: 22%
Pressure (altimeter): 29.77 in. Hg (1008 hPa)
ob: KGEG 172253Z 23016G25KT 10SM FEW070 FEW200 26/03 A2977 RMK AO2 PK WND 23026/2202 SLP066 T02610028
cycle: 23

Station Type Date Time Source
KGEG TAF 2021/05/17 18:42 UTC NOAA

TAF KGEG 171738Z 1718/1818 20010G16KT P6SM FEW200
FM172000 22017G22KT P6SM FEW070 FEW200
FM180200 22010KT P6SM SCT060 SCT180
FM180900 22014G23KT P6SM BKN050 BKN150
FM181200 24017G28KT P6SM VCSH SCT020 OVC050
FM181500 24018G30KT P6SM SCT060 SCT200

Example: see airport list